OEBA/ABT METAR and TAF weather

Enter ICAO airport designator
Station Type Date Time Source
OEBA METAR 2024/04/17 17:00 UTC NOAA

OEBA 171700Z 21005KT CAVOK 24/09 Q1019 NOSIG


Station Type Date Time Source
OEBA Decoded METAR 2024/04/17 17:00 UTC NOAA

Al Baha, Saudi Arabia (OEBA) 20-18N 041-38E 1662M
Apr 17, 2024 - 01:00 PM EDT / 2024.04.17 1700 UTC
Wind: from the SSW (210 degrees) at 6 MPH (5 KT):0
Visibility: greater than 7 mile(s):0
Temperature: 75 F (24 C)
Dew Point: 48 F (9 C)
Relative Humidity: 38%
Pressure (altimeter): 30.09 in. Hg (1019 hPa)
ob: OEBA 171700Z 21005KT CAVOK 24/09 Q1019 NOSIG
cycle: 17

Station Type Date Time Source
OEBA TAF 2024/04/17 12:18 UTC NOAA